Time,TemperatureF,DewpointF,PressureIn,WindDirection,WindDirectionDegrees,WindSpeedMPH,WindSpeedGustMPH,Humidity,HourlyPrecipIn,Conditions,Clouds,dailyrainin,SoftwareType,DateUTC
2013-05-23 00:01:00,53.2,53.0,29.85,NE,55,3.0,5.0,98,0.00,,,0.00,weatherlink.com 1.10,2013-05-23 04:01:00,
2013-05-23 01:14:00,51.9,51.0,29.84,ENE,59,2.0,4.0,98,0.00,,,0.00,weatherlink.com 1.10,2013-05-23 05:14:00,
2013-05-23 01:31:00,51.5,51.0,29.84,ENE,61,2.0,3.0,98,0.00,,,0.00,weatherlink.com 1.10,2013-05-23 05:31:00,
2013-05-23 01:46:00,51.4,51.0,29.82,ENE,59,1.0,3.0,98,0.00,,,0.00,weatherlink.com 1.10,2013-05-23 05:46:00,
2013-05-23 02:01:00,51.4,51.0,29.82,ENE,59,2.0,3.0,98,0.00,,,0.00,weatherlink.com 1.10,2013-05-23 06:01:00,
2013-05-23 02:17:00,51.8,51.0,29.82,ENE,59,2.0,3.0,98,0.00,,,0.00,weatherlink.com 1.10,2013-05-23 06:17:00,
2013-05-23 02:32:00,52.6,52.0,29.82,ENE,58,1.0,2.0,98,0.00,,,0.00,weatherlink.com 1.10,2013-05-23 06:32:00,
2013-05-23 02:47:00,52.7,52.0,29.82,ENE,57,2.0,4.0,98,0.00,,,0.00,weatherlink.com 1.10,2013-05-23 06:47:00,
2013-05-23 03:02:00,52.8,52.0,29.82,ENE,67,1.0,3.0,98,0.00,,,0.00,weatherlink.com 1.10,2013-05-23 07:02:00,
2013-05-23 03:17:00,52.6,52.0,29.82,ENE,62,2.0,3.0,98,0.00,,,0.00,weatherlink.com 1.10,2013-05-23 07:17:00,
2013-05-23 03:32:00,52.4,52.0,29.82,ENE,57,1.0,3.0,98,0.00,,,0.00,weatherlink.com 1.10,2013-05-23 07:32:00,
2013-05-23 03:47:00,52.1,52.0,29.82,ENE,57,2.0,2.0,98,0.00,,,0.00,weatherlink.com 1.10,2013-05-23 07:47:00,
2013-05-23 04:02:00,51.8,51.0,29.82,ENE,57,2.0,2.0,98,0.00,,,0.00,weatherlink.com 1.10,2013-05-23 08:02:00,
2013-05-23 04:17:00,52.1,52.0,29.82,NE,48,1.0,7.0,98,0.00,,,0.00,weatherlink.com 1.10,2013-05-23 08:17:00,
2013-05-23 04:32:00,52.3,52.0,29.82,NE,56,1.0,2.0,98,0.00,,,0.00,weatherlink.com 1.10,2013-05-23 08:32:00,
2013-05-23 04:47:00,52.1,52.0,29.82,NE,56,2.0,3.0,98,0.00,,,0.00,weatherlink.com 1.10,2013-05-23 08:47:00,
2013-05-23 05:02:00,51.9,51.0,29.82,NE,56,1.0,3.0,98,0.00,,,0.00,weatherlink.com 1.10,2013-05-23 09:02:00,
2013-05-23 05:17:00,52.3,52.0,29.82,NE,56,1.0,2.0,98,0.00,,,0.00,weatherlink.com 1.10,2013-05-23 09:17:00,
2013-05-23 05:32:00,52.3,52.0,29.82,NE,56,0.0,1.0,98,0.00,,,0.00,weatherlink.com 1.10,2013-05-23 09:32:00,
2013-05-23 05:47:00,52.7,53.0,29.82,ENE,62,0.0,2.0,99,0.00,,,0.00,weatherlink.com 1.10,2013-05-23 09:47:00,
2013-05-23 06:02:00,52.7,53.0,29.82,ENE,67,1.0,3.0,99,0.00,,,0.00,weatherlink.com 1.10,2013-05-23 10:02:00,
2013-05-23 06:17:00,51.9,52.0,29.82,ENE,69,2.0,2.0,99,0.00,,,0.00,weatherlink.com 1.10,2013-05-23 10:17:00,
2013-05-23 06:32:00,51.8,51.0,29.82,ENE,69,1.0,2.0,98,0.00,,,0.00,weatherlink.com 1.10,2013-05-23 10:32:00,
2013-05-23 06:47:00,51.9,52.0,29.83,ENE,69,1.0,2.0,99,0.00,,,0.00,weatherlink.com 1.10,2013-05-23 10:47:00,
2013-05-23 07:02:00,52.3,52.0,29.83,East,82,1.0,2.0,99,0.01,,,0.01,weatherlink.com 1.10,2013-05-23 11:02:00,
2013-05-23 07:17:00,52.9,53.0,29.84,East,82,0.0,1.0,99,0.01,,,0.01,weatherlink.com 1.10,2013-05-23 11:17:00,
2013-05-23 07:32:00,53.3,53.0,29.84,East,81,0.0,2.0,99,0.01,,,0.01,weatherlink.com 1.10,2013-05-23 11:32:00,
2013-05-23 07:47:00,53.6,53.0,29.84,East,84,0.0,2.0,99,0.01,,,0.01,weatherlink.com 1.10,2013-05-23 11:47:00,
2013-05-23 08:02:00,53.3,53.0,29.84,East,84,0.0,1.0,99,0.00,,,0.01,weatherlink.com 1.10,2013-05-23 12:02:00,
2013-05-23 08:17:00,54.2,54.0,29.84,ENE,59,0.0,4.0,99,0.00,,,0.01,weatherlink.com 1.10,2013-05-23 12:17:00,
2013-05-23 08:32:00,55.4,55.0,29.84,NW,323,3.0,4.0,99,0.00,,,0.01,weatherlink.com 1.10,2013-05-23 12:32:00,
2013-05-23 08:47:00,55.4,55.0,29.84,ENE,61,2.0,4.0,99,0.00,,,0.01,weatherlink.com 1.10,2013-05-23 12:47:00,
2013-05-23 09:02:00,56.1,56.0,29.84,North,5,0.0,4.0,98,0.00,,,0.01,weatherlink.com 1.10,2013-05-23 13:02:00,
2013-05-23 09:17:00,55.8,55.0,29.84,ENE,58,0.0,1.0,98,0.00,,,0.01,weatherlink.com 1.10,2013-05-23 13:17:00,
2013-05-23 09:32:00,55.4,55.0,29.85,NW,313,1.0,6.0,97,0.00,,,0.01,weatherlink.com 1.10,2013-05-23 13:32:00,
2013-05-23 09:47:00,54.6,54.0,29.85,NNW,333,4.0,8.0,97,0.00,,,0.01,weatherlink.com 1.10,2013-05-23 13:47:00,
2013-05-23 10:02:00,54.6,54.0,29.85,NW,306,5.0,5.0,96,0.00,,,0.01,weatherlink.com 1.10,2013-05-23 14:02:00,
2013-05-23 10:17:00,54.6,53.0,29.85,NW,315,2.0,10.0,95,0.00,,,0.01,weatherlink.com 1.10,2013-05-23 14:17:00,
2013-05-23 10:32:00,54.3,54.0,29.84,NNW,333,4.0,10.0,97,0.00,,,0.01,weatherlink.com 1.10,2013-05-23 14:32:00,
2013-05-23 10:47:00,54.9,54.0,29.85,NW,306,4.0,6.0,95,0.00,,,0.01,weatherlink.com 1.10,2013-05-23 14:47:00,
2013-05-23 11:02:00,55.0,54.0,29.85,NW,315,3.0,6.0,96,0.00,,,0.01,weatherlink.com 1.10,2013-05-23 15:02:00,
2013-05-23 11:17:00,55.3,54.0,29.85,WNW,293,2.0,7.0,94,0.00,,,0.01,weatherlink.com 1.10,2013-05-23 15:17:00,
2013-05-23 11:32:00,55.0,54.0,29.85,NW,325,3.0,8.0,95,0.00,,,0.01,weatherlink.com 1.10,2013-05-23 15:32:00,
2013-05-23 11:47:00,56.1,54.0,29.85,NE,51,0.0,9.0,93,0.00,,,0.01,weatherlink.com 1.10,2013-05-23 15:47:00,
2013-05-23 12:02:00,57.5,56.0,29.86,NE,35,4.0,6.0,93,0.00,,,0.01,weatherlink.com 1.10,2013-05-23 16:02:00,
2013-05-23 12:17:00,57.5,55.0,29.86,NW,325,4.0,7.0,92,0.00,,,0.01,weatherlink.com 1.10,2013-05-23 16:17:00,
2013-05-23 12:32:00,58.5,55.0,29.86,SW,214,2.0,8.0,88,0.00,,,0.01,weatherlink.com 1.10,2013-05-23 16:32:00,
2013-05-23 12:47:00,57.1,55.0,29.86,WNW,298,0.0,6.0,91,0.00,,,0.01,weatherlink.com 1.10,2013-05-23 16:47:00,
2013-05-23 13:02:00,58.4,55.0,29.86,SW,216,0.0,9.0,89,0.00,,,0.01,weatherlink.com 1.10,2013-05-23 17:02:00,
2013-05-23 13:17:00,58.9,54.0,29.86,NW,317,1.0,8.0,85,0.00,,,0.01,weatherlink.com 1.10,2013-05-23 17:17:00,
2013-05-23 13:32:00,60.3,54.0,29.85,West,280,3.0,8.0,80,0.00,,,0.01,weatherlink.com 1.10,2013-05-23 17:32:00,
2013-05-23 13:47:00,62.2,53.0,29.85,NW,317,0.0,16.0,72,0.00,,,0.01,weatherlink.com 1.10,2013-05-23 17:47:00,
2013-05-23 14:02:00,62.6,53.0,29.85,NNW,333,2.0,8.0,72,0.00,,,0.01,weatherlink.com 1.10,2013-05-23 18:02:00,
2013-05-23 14:17:00,63.6,54.0,29.84,NE,53,2.0,7.0,71,0.00,,,0.01,weatherlink.com 1.10,2013-05-23 18:17:00,
2013-05-23 14:32:00,63.1,53.0,29.84,West,278,3.0,7.0,70,0.00,,,0.01,weatherlink.com 1.10,2013-05-23 18:32:00,
2013-05-23 14:47:00,62.9,52.0,29.83,NNW,340,3.0,10.0,68,0.00,,,0.01,weatherlink.com 1.10,2013-05-23 18:47:00,
2013-05-23 15:03:00,64.1,51.0,29.83,North,5,0.0,6.0,63,0.00,,,0.01,weatherlink.com 1.10,2013-05-23 19:03:00,
2013-05-23 15:18:00,62.9,52.0,29.83,NW,325,3.0,7.0,67,0.00,,,0.01,weatherlink.com 1.10,2013-05-23 19:18:00,
2013-05-23 15:33:00,63.5,51.0,29.82,SE,130,4.0,5.0,63,0.00,,,0.01,weatherlink.com 1.10,2013-05-23 19:33:00,
2013-05-23 15:48:00,63.0,50.0,29.82,SW,221,9.0,12.0,63,0.00,,,0.01,weatherlink.com 1.10,2013-05-23 19:48:00,
2013-05-23 16:03:00,63.0,51.0,29.82,West,267,1.0,7.0,66,0.00,,,0.01,weatherlink.com 1.10,2013-05-23 20:03:00,
2013-05-23 16:18:00,62.7,49.0,29.81,NW,325,2.0,6.0,62,0.00,,,0.01,weatherlink.com 1.10,2013-05-23 20:18:00,
2013-05-23 16:33:00,61.9,51.0,29.81,NNE,33,2.0,4.0,68,0.00,,,0.01,weatherlink.com 1.10,2013-05-23 20:33:00,
2013-05-23 16:48:00,61.8,51.0,29.80,NNE,27,1.0,5.0,69,0.00,,,0.01,weatherlink.com 1.10,2013-05-23 20:48:00,
2013-05-23 17:03:00,61.3,50.0,29.80,NNE,28,2.0,6.0,67,0.00,,,0.01,weatherlink.com 1.10,2013-05-23 21:03:00,
2013-05-23 17:18:00,61.7,50.0,29.80,NE,41,0.0,6.0,66,0.00,,,0.01,weatherlink.com 1.10,2013-05-23 21:18:00,
2013-05-23 17:33:00,62.0,51.0,29.80,NNE,18,3.0,6.0,67,0.00,,,0.01,weatherlink.com 1.10,2013-05-23 21:33:00,
2013-05-23 17:48:00,61.6,51.0,29.80,NNW,342,0.0,4.0,68,0.00,,,0.01,weatherlink.com 1.10,2013-05-23 21:48:00,
2013-05-23 18:03:00,61.7,51.0,29.80,ENE,59,4.0,10.0,69,0.00,,,0.01,weatherlink.com 1.10,2013-05-23 22:03:00,
2013-05-23 18:33:00,60.0,52.0,29.80,WNW,303,4.0,8.0,74,0.00,,,0.01,weatherlink.com 1.10,2013-05-23 22:33:00,
2013-05-23 18:48:00,59.4,52.0,29.80,NW,320,2.0,9.0,77,0.00,,,0.01,weatherlink.com 1.10,2013-05-23 22:48:00,
2013-05-23 19:03:00,57.7,52.0,29.80,NNW,343,4.0,12.0,82,0.00,,,0.01,weatherlink.com 1.10,2013-05-23 23:03:00,
2013-05-23 19:18:00,56.6,52.0,29.80,NNW,342,7.0,10.0,84,0.00,,,0.01,weatherlink.com 1.10,2013-05-23 23:18:00,
2013-05-23 19:33:00,54.2,51.0,29.79,NNE,23,5.0,10.0,88,0.00,,,0.01,weatherlink.com 1.10,2013-05-23 23:33:00,
2013-05-23 19:48:00,52.9,50.0,29.79,NE,34,2.0,13.0,91,0.00,,,0.01,weatherlink.com 1.10,2013-05-23 23:48:00,
2013-05-23 20:03:00,52.7,50.0,29.79,NNE,19,7.0,7.0,91,0.00,,,0.01,weatherlink.com 1.10,2013-05-24 00:03:00,
2013-05-23 20:18:00,53.0,51.0,29.79,NW,324,4.0,12.0,92,0.00,,,0.01,weatherlink.com 1.10,2013-05-24 00:18:00,
2013-05-23 20:33:00,52.0,50.0,29.78,NW,324,6.0,13.0,94,0.00,,,0.01,weatherlink.com 1.10,2013-05-24 00:33:00,
2013-05-23 20:48:00,51.6,50.0,29.78,SW,216,8.0,12.0,95,0.00,,,0.01,weatherlink.com 1.10,2013-05-24 00:48:00,
2013-05-23 21:03:00,51.0,50.0,29.78,ESE,109,2.0,16.0,96,0.00,,,0.01,weatherlink.com 1.10,2013-05-24 01:03:00,
2013-05-23 21:18:00,51.0,50.0,29.79,NE,34,4.0,12.0,97,0.00,,,0.01,weatherlink.com 1.10,2013-05-24 01:18:00,
2013-05-23 21:33:00,50.7,50.0,29.81,WNW,287,9.0,18.0,97,0.00,,,0.01,weatherlink.com 1.10,2013-05-24 01:33:00,
2013-05-23 21:48:00,50.7,50.0,29.82,North,355,2.0,16.0,97,0.00,,,0.01,weatherlink.com 1.10,2013-05-24 01:48:00,
2013-05-23 22:03:00,50.4,50.0,29.82,WSW,255,6.0,18.0,97,0.00,,,0.01,weatherlink.com 1.10,2013-05-24 02:03:00,
2013-05-23 22:18:00,50.3,50.0,29.82,NW,316,6.0,18.0,97,0.00,,,0.01,weatherlink.com 1.10,2013-05-24 02:18:00,
2013-05-23 22:33:00,50.4,50.0,29.81,WNW,291,7.0,17.0,97,0.00,,,0.01,weatherlink.com 1.10,2013-05-24 02:33:00,
2013-05-23 22:48:00,50.4,50.0,29.82,NW,307,8.0,13.0,97,0.00,,,0.01,weatherlink.com 1.10,2013-05-24 02:48:00,
2013-05-23 23:03:00,49.9,49.0,29.82,West,273,8.0,15.0,97,0.00,,,0.01,weatherlink.com 1.10,2013-05-24 03:03:00,
2013-05-23 23:18:00,49.4,49.0,29.83,NW,317,6.0,16.0,97,0.00,,,0.01,weatherlink.com 1.10,2013-05-24 03:18:00,
2013-05-23 23:33:00,49.0,48.0,29.83,NW,321,7.0,14.0,97,0.00,,,0.01,weatherlink.com 1.10,2013-05-24 03:33:00,
2013-05-23 23:48:00,48.7,48.0,29.84,WNW,302,2.0,13.0,97,0.00,,,0.01,weatherlink.com 1.10,2013-05-24 03:48:00,